Jupiter Spirit — A8ZC2 — position and weather

sailwx.info

Track history (hours):
 
Tides and Currents Weather Stations Pressure Air Temp Water Temp Dewpoint Dewpoint Depression Visibility Wind Speed Wind Dir Waves Ship Positions

Jupiter Spirit

Last reported at 2017-Mar-09 11:15 UTC. Time now 2017-Mar-28 19:45 UTC.
Position N 33°39' W 120°45'.
Warning: this ship's position is 19 days out of date.

Length 183 m; draft 8 m.

Type: Cargo ship. MMSI: 636015173.

Date/timePositionNaut miles runAvg speedWind from/ knotsBaromVisibWave heightAir tempDewpointWater temp
2017-Mar-09 11:15N 33°39' W 120°45'1318.1
2017-Mar-09 10:33N 33°39' W 120°30'4118.6
2017-Mar-09 08:22N 33°39' W 119°41'3217.6
2017-Mar-09 06:33N 33°39' W 119°02'1211.7
2017-Mar-09 05:33N 33°39' W 118°48'1211.8
2017-Mar-09 04:33N 33°39' W 118°34'1211.7
2017-Mar-09 03:34N 33°38' W 118°20'7 6.6
2017-Mar-09 02:33N 33°44' W 118°17'2 0.6
2017-Mar-08 23:09N 33°46' W 118°15'0 0.0
2017-Mar-08 22:27N 33°46' W 118°15'0 0.0
2017-Mar-08 21:33N 33°46' W 118°15'0 0.0
2017-Mar-08 20:09N 33°46' W 118°15'0 0.0
2017-Mar-08 19:33N 33°46' W 118°15'0 0.0
2017-Mar-08 18:33N 33°46' W 118°15'0 0.0
2017-Mar-08 17:21N 33°46' W 118°15'0 0.0
2017-Mar-08 16:27N 33°46' W 118°15'0 0.0
2017-Mar-08 15:30N 33°46' W 118°15'0 0.0
2017-Mar-08 14:33N 33°46' W 118°15'0 0.0
2017-Mar-08 13:33N 33°46' W 118°15'0 0.0
2017-Mar-08 12:33N 33°46' W 118°15'0 0.0
2017-Mar-08 11:33N 33°46' W 118°15'0 0.0
2017-Mar-08 10:33N 33°46' W 118°15'0 0.0
2017-Mar-08 09:33N 33°46' W 118°15'0 0.0
2017-Mar-08 08:33N 33°46' W 118°15'0 0.0
2017-Mar-08 06:33N 33°46' W 118°15'0 0.0
2017-Mar-08 01:33N 33°46' W 118°15'0 0.0
2017-Mar-07 23:33N 33°46' W 118°15'0 0.0
2017-Mar-07 22:33N 33°46' W 118°15'0 0.0
2017-Mar-07 21:33N 33°46' W 118°15'0 0.0
2017-Mar-07 20:33N 33°46' W 118°15'0 0.0
2017-Mar-07 18:03N 33°46' W 118°15'0 0.0
2017-Mar-07 17:33N 33°46' W 118°15'0 0.0
2017-Mar-07 16:33N 33°46' W 118°15'0 0.0
2017-Mar-07 14:27N 33°46' W 118°15'0 0.0
2017-Mar-07 13:03N 33°46' W 118°15'0 0.0
2017-Mar-07 07:09N 33°46' W 118°15'0 0.0
2017-Mar-07 04:21N 33°46' W 118°15'0 0.0
2017-Mar-07 03:27N 33°46' W 118°15'0 0.0
2017-Mar-07 02:33N 33°46' W 118°15'1 1.0
2017-Mar-07 01:33N 33°45' W 118°16'7 6.4
2017-Mar-07 00:31N 33°39' W 118°15'8 7.8
2017-Mar-06 23:32N 33°36' W 118°24'3611.7
2017-Mar-06 20:30N 33°37' W 119°06'  
Track history (hours):
 
Tides and Currents Weather Stations Pressure Air Temp Water Temp Dewpoint Dewpoint Depression Visibility Wind Speed Wind Dir Waves Ship Positions

Jupiter Spirit

Last reported at 2017-Mar-09 11:15 UTC. Time now 2017-Mar-28 19:45 UTC.
Position N 33°39' W 120°45'.
Warning: this ship's position is 19 days out of date.

Length 183 m; draft 8 m.

Type: Cargo ship. MMSI: 636015173.

Date/timePositionNaut miles runAvg speedWind from/ knotsBaromVisibWave heightAir tempDewpointWater temp
2017-Mar-09 11:15N 33°39' W 120°45'1318.1
2017-Mar-09 10:33N 33°39' W 120°30'4118.6
2017-Mar-09 08:22N 33°39' W 119°41'3217.6
2017-Mar-09 06:33N 33°39' W 119°02'1211.7
2017-Mar-09 05:33N 33°39' W 118°48'1211.8
2017-Mar-09 04:33N 33°39' W 118°34'1211.7
2017-Mar-09 03:34N 33°38' W 118°20'7 6.6
2017-Mar-09 02:33N 33°44' W 118°17'2 0.6
2017-Mar-08 23:09N 33°46' W 118°15'0 0.0
2017-Mar-08 22:27N 33°46' W 118°15'0 0.0
2017-Mar-08 21:33N 33°46' W 118°15'0 0.0
2017-Mar-08 20:09N 33°46' W 118°15'0 0.0
2017-Mar-08 19:33N 33°46' W 118°15'0 0.0
2017-Mar-08 18:33N 33°46' W 118°15'0 0.0
2017-Mar-08 17:21N 33°46' W 118°15'0 0.0
2017-Mar-08 16:27N 33°46' W 118°15'0 0.0
2017-Mar-08 15:30N 33°46' W 118°15'0 0.0
2017-Mar-08 14:33N 33°46' W 118°15'0 0.0
2017-Mar-08 13:33N 33°46' W 118°15'0 0.0
2017-Mar-08 12:33N 33°46' W 118°15'0 0.0
2017-Mar-08 11:33N 33°46' W 118°15'0 0.0
2017-Mar-08 10:33N 33°46' W 118°15'0 0.0
2017-Mar-08 09:33N 33°46' W 118°15'0 0.0
2017-Mar-08 08:33N 33°46' W 118°15'0 0.0
2017-Mar-08 06:33N 33°46' W 118°15'0 0.0
2017-Mar-08 01:33N 33°46' W 118°15'0 0.0
2017-Mar-07 23:33N 33°46' W 118°15'0 0.0
2017-Mar-07 22:33N 33°46' W 118°15'0 0.0
2017-Mar-07 21:33N 33°46' W 118°15'0 0.0
2017-Mar-07 20:33N 33°46' W 118°15'0 0.0
2017-Mar-07 18:03N 33°46' W 118°15'0 0.0
2017-Mar-07 17:33N 33°46' W 118°15'0 0.0
2017-Mar-07 16:33N 33°46' W 118°15'0 0.0
2017-Mar-07 14:27N 33°46' W 118°15'0 0.0
2017-Mar-07 13:03N 33°46' W 118°15'0 0.0
2017-Mar-07 07:09N 33°46' W 118°15'0 0.0
2017-Mar-07 04:21N 33°46' W 118°15'0 0.0
2017-Mar-07 03:27N 33°46' W 118°15'0 0.0
2017-Mar-07 02:33N 33°46' W 118°15'1 1.0
2017-Mar-07 01:33N 33°45' W 118°16'7 6.4
2017-Mar-07 00:31N 33°39' W 118°15'8 7.8
2017-Mar-06 23:32N 33°36' W 118°24'3611.7
2017-Mar-06 20:30N 33°37' W 119°06'  

Dump ship's entire track history